sensor_id;sensor_type;location;lat;lon;timestamp;P1;durP1;ratioP1;P2;durP2;ratioP2
72573;SDS011;60603;52.548;13.420;2024-02-04T00:02:10;5.22;;;1.65;;
72573;SDS011;60603;52.548;13.420;2024-02-04T00:04:40;12.18;;;2.10;;
72573;SDS011;60603;52.548;13.420;2024-02-04T00:07:07;9.68;;;2.22;;
72573;SDS011;60603;52.548;13.420;2024-02-04T00:09:35;4.95;;;2.13;;
72573;SDS011;60603;52.548;13.420;2024-02-04T00:12:02;10.35;;;1.83;;
72573;SDS011;60603;52.548;13.420;2024-02-04T00:14:31;15.57;;;2.40;;
72573;SDS011;60603;52.548;13.420;2024-02-04T00:16:58;13.23;;;2.10;;
72573;SDS011;60603;52.548;13.420;2024-02-04T00:19:25;8.55;;;1.65;;
72573;SDS011;60603;52.548;13.420;2024-02-04T00:21:53;10.68;;;2.40;;
72573;SDS011;60603;52.548;13.420;2024-02-04T00:24:20;6.00;;;1.48;;
72573;SDS011;60603;52.548;13.420;2024-02-04T00:26:47;10.10;;;2.38;;
72573;SDS011;60603;52.548;13.420;2024-02-04T00:29:14;9.38;;;2.72;;
72573;SDS011;60603;52.548;13.420;2024-02-04T00:31:41;9.85;;;2.20;;
72573;SDS011;60603;52.548;13.420;2024-02-04T00:34:08;11.25;;;2.17;;
72573;SDS011;60603;52.548;13.420;2024-02-04T00:36:35;9.60;;;2.00;;
72573;SDS011;60603;52.548;13.420;2024-02-04T00:39:02;10.23;;;2.25;;
72573;SDS011;60603;52.548;13.420;2024-02-04T00:41:29;8.18;;;2.00;;
72573;SDS011;60603;52.548;13.420;2024-02-04T00:43:56;8.02;;;1.80;;
72573;SDS011;60603;52.548;13.420;2024-02-04T00:46:23;8.38;;;2.15;;
72573;SDS011;60603;52.548;13.420;2024-02-04T00:48:50;5.35;;;2.03;;
72573;SDS011;60603;52.548;13.420;2024-02-04T00:51:17;6.65;;;1.77;;
72573;SDS011;60603;52.548;13.420;2024-02-04T00:53:46;8.43;;;1.63;;
72573;SDS011;60603;52.548;13.420;2024-02-04T00:56:13;11.75;;;1.70;;
72573;SDS011;60603;52.548;13.420;2024-02-04T00:58:40;8.63;;;2.50;;
72573;SDS011;60603;52.548;13.420;2024-02-04T01:01:06;10.15;;;2.20;;
72573;SDS011;60603;52.548;13.420;2024-02-04T01:03:33;13.85;;;2.35;;
72573;SDS011;60603;52.548;13.420;2024-02-04T01:06:00;9.80;;;2.05;;
72573;SDS011;60603;52.548;13.420;2024-02-04T01:08:27;9.38;;;1.48;;
72573;SDS011;60603;52.548;13.420;2024-02-04T01:10:54;5.50;;;1.60;;
72573;SDS011;60603;52.548;13.420;2024-02-04T01:13:21;9.07;;;1.92;;
72573;SDS011;60603;52.548;13.420;2024-02-04T01:15:48;7.15;;;2.15;;
72573;SDS011;60603;52.548;13.420;2024-02-04T01:18:15;8.27;;;1.60;;
72573;SDS011;60603;52.548;13.420;2024-02-04T01:20:42;8.57;;;2.30;;
72573;SDS011;60603;52.548;13.420;2024-02-04T01:23:08;9.98;;;2.08;;
72573;SDS011;60603;52.548;13.420;2024-02-04T01:25:35;8.88;;;1.80;;
72573;SDS011;60603;52.548;13.420;2024-02-04T01:28:06;11.98;;;1.90;;
72573;SDS011;60603;52.548;13.420;2024-02-04T01:30:32;13.15;;;2.45;;
72573;SDS011;60603;52.548;13.420;2024-02-04T01:32:59;10.95;;;2.50;;
72573;SDS011;60603;52.548;13.420;2024-02-04T01:35:26;9.77;;;2.28;;
72573;SDS011;60603;52.548;13.420;2024-02-04T01:37:53;11.75;;;2.30;;
72573;SDS011;60603;52.548;13.420;2024-02-04T01:40:20;9.73;;;2.13;;
72573;SDS011;60603;52.548;13.420;2024-02-04T01:42:47;9.30;;;1.95;;
72573;SDS011;60603;52.548;13.420;2024-02-04T01:45:14;12.27;;;2.30;;
72573;SDS011;60603;52.548;13.420;2024-02-04T01:47:41;9.20;;;2.15;;
72573;SDS011;60603;52.548;13.420;2024-02-04T01:50:08;6.90;;;1.60;;
72573;SDS011;60603;52.548;13.420;2024-02-04T01:52:36;10.68;;;1.88;;
72573;SDS011;60603;52.548;13.420;2024-02-04T01:55:04;11.90;;;2.22;;
72573;SDS011;60603;52.548;13.420;2024-02-04T01:57:32;8.45;;;1.90;;
72573;SDS011;60603;52.548;13.420;2024-02-04T02:00:01;15.93;;;2.80;;
72573;SDS011;60603;52.548;13.420;2024-02-04T02:02:31;8.20;;;1.85;;
72573;SDS011;60603;52.548;13.420;2024-02-04T02:04:59;7.63;;;1.73;;
72573;SDS011;60603;52.548;13.420;2024-02-04T02:07:26;7.90;;;2.08;;
72573;SDS011;60603;52.548;13.420;2024-02-04T02:09:54;9.77;;;1.92;;
72573;SDS011;60603;52.548;13.420;2024-02-04T02:12:25;8.57;;;2.22;;
72573;SDS011;60603;52.548;13.420;2024-02-04T02:14:57;9.95;;;2.13;;
72573;SDS011;60603;52.548;13.420;2024-02-04T02:17:31;8.63;;;2.55;;
72573;SDS011;60603;52.548;13.420;2024-02-04T02:20:07;7.10;;;2.58;;
72573;SDS011;60603;52.548;13.420;2024-02-04T02:25:11;9.27;;;1.88;;
72573;SDS011;60603;52.548;13.420;2024-02-04T02:27:46;8.02;;;1.80;;
72573;SDS011;60603;52.548;13.420;2024-02-04T02:30:17;18.08;;;2.35;;
72573;SDS011;60603;52.548;13.420;2024-02-04T02:32:44;13.90;;;2.90;;
72573;SDS011;60603;52.548;13.420;2024-02-04T02:35:13;12.23;;;2.17;;
72573;SDS011;60603;52.548;13.420;2024-02-04T02:37:50;12.38;;;2.67;;
72573;SDS011;60603;52.548;13.420;2024-02-04T02:40:21;9.98;;;2.10;;
72573;SDS011;60603;52.548;13.420;2024-02-04T02:42:49;7.35;;;1.65;;
72573;SDS011;60603;52.548;13.420;2024-02-04T02:47:46;8.93;;;2.20;;
72573;SDS011;60603;52.548;13.420;2024-02-04T02:50:14;10.98;;;1.95;;
72573;SDS011;60603;52.548;13.420;2024-02-04T02:52:41;11.65;;;2.33;;
72573;SDS011;60603;52.548;13.420;2024-02-04T02:55:08;12.93;;;2.38;;
72573;SDS011;60603;52.548;13.420;2024-02-04T02:57:34;6.78;;;1.80;;
72573;SDS011;60603;52.548;13.420;2024-02-04T03:00:02;10.50;;;2.20;;
72573;SDS011;60603;52.548;13.420;2024-02-04T03:02:30;13.50;;;2.15;;
72573;SDS011;60603;52.548;13.420;2024-02-04T03:04:57;7.85;;;2.13;;
72573;SDS011;60603;52.548;13.420;2024-02-04T03:07:23;13.05;;;3.15;;
72573;SDS011;60603;52.548;13.420;2024-02-04T03:09:52;6.70;;;1.73;;
72573;SDS011;60603;52.548;13.420;2024-02-04T03:12:19;9.07;;;2.30;;
72573;SDS011;60603;52.548;13.420;2024-02-04T03:14:46;8.10;;;2.10;;
72573;SDS011;60603;52.548;13.420;2024-02-04T03:17:13;12.15;;;2.63;;
72573;SDS011;60603;52.548;13.420;2024-02-04T03:19:40;10.10;;;2.13;;
72573;SDS011;60603;52.548;13.420;2024-02-04T03:22:06;9.02;;;1.70;;
72573;SDS011;60603;52.548;13.420;2024-02-04T03:24:33;10.65;;;2.63;;
72573;SDS011;60603;52.548;13.420;2024-02-04T03:27:00;10.95;;;2.17;;
72573;SDS011;60603;52.548;13.420;2024-02-04T03:29:27;9.93;;;2.30;;
72573;SDS011;60603;52.548;13.420;2024-02-04T03:31:55;9.85;;;2.50;;
72573;SDS011;60603;52.548;13.420;2024-02-04T03:34:22;10.20;;;2.38;;
72573;SDS011;60603;52.548;13.420;2024-02-04T03:36:49;6.93;;;2.90;;
72573;SDS011;60603;52.548;13.420;2024-02-04T03:39:16;10.38;;;2.72;;
72573;SDS011;60603;52.548;13.420;2024-02-04T03:41:43;9.63;;;2.45;;
72573;SDS011;60603;52.548;13.420;2024-02-04T03:44:10;9.80;;;2.55;;
72573;SDS011;60603;52.548;13.420;2024-02-04T03:46:36;7.38;;;2.15;;
72573;SDS011;60603;52.548;13.420;2024-02-04T03:49:07;9.52;;;2.50;;
72573;SDS011;60603;52.548;13.420;2024-02-04T03:51:34;6.28;;;2.22;;
72573;SDS011;60603;52.548;13.420;2024-02-04T03:54:02;5.95;;;2.35;;
72573;SDS011;60603;52.548;13.420;2024-02-04T03:56:28;6.47;;;2.50;;
72573;SDS011;60603;52.548;13.420;2024-02-04T03:58:55;14.80;;;3.38;;
72573;SDS011;60603;52.548;13.420;2024-02-04T04:01:22;8.30;;;2.53;;
72573;SDS011;60603;52.548;13.420;2024-02-04T04:03:49;6.85;;;2.60;;
72573;SDS011;60603;52.548;13.420;2024-02-04T04:06:17;13.80;;;3.10;;
72573;SDS011;60603;52.548;13.420;2024-02-04T04:08:44;12.43;;;3.40;;
72573;SDS011;60603;52.548;13.420;2024-02-04T04:11:11;8.27;;;2.58;;
72573;SDS011;60603;52.548;13.420;2024-02-04T04:13:38;8.18;;;2.13;;
72573;SDS011;60603;52.548;13.420;2024-02-04T04:16:05;10.27;;;2.63;;
72573;SDS011;60603;52.548;13.420;2024-02-04T04:18:32;13.55;;;2.83;;
72573;SDS011;60603;52.548;13.420;2024-02-04T04:20:59;10.57;;;2.55;;
72573;SDS011;60603;52.548;13.420;2024-02-04T04:23:26;5.50;;;2.10;;
72573;SDS011;60603;52.548;13.420;2024-02-04T04:25:53;8.45;;;3.15;;
72573;SDS011;60603;52.548;13.420;2024-02-04T04:28:20;11.80;;;2.30;;
72573;SDS011;60603;52.548;13.420;2024-02-04T04:30:47;9.13;;;2.83;;
72573;SDS011;60603;52.548;13.420;2024-02-04T04:33:14;8.35;;;2.22;;
72573;SDS011;60603;52.548;13.420;2024-02-04T04:35:40;11.35;;;2.75;;
72573;SDS011;60603;52.548;13.420;2024-02-04T04:38:07;9.30;;;2.22;;
72573;SDS011;60603;52.548;13.420;2024-02-04T04:40:34;12.90;;;2.97;;
72573;SDS011;60603;52.548;13.420;2024-02-04T04:43:01;14.70;;;2.78;;
72573;SDS011;60603;52.548;13.420;2024-02-04T04:45:28;9.07;;;2.50;;
72573;SDS011;60603;52.548;13.420;2024-02-04T04:47:55;5.18;;;2.53;;
72573;SDS011;60603;52.548;13.420;2024-02-04T04:50:22;10.52;;;2.67;;
72573;SDS011;60603;52.548;13.420;2024-02-04T04:52:49;9.77;;;2.65;;
72573;SDS011;60603;52.548;13.420;2024-02-04T04:55:16;9.07;;;2.22;;
72573;SDS011;60603;52.548;13.420;2024-02-04T04:57:43;9.35;;;2.20;;
72573;SDS011;60603;52.548;13.420;2024-02-04T05:00:10;8.73;;;1.90;;
72573;SDS011;60603;52.548;13.420;2024-02-04T05:02:39;12.45;;;2.13;;
72573;SDS011;60603;52.548;13.420;2024-02-04T05:05:06;6.55;;;1.83;;
72573;SDS011;60603;52.548;13.420;2024-02-04T05:07:33;12.10;;;2.58;;
72573;SDS011;60603;52.548;13.420;2024-02-04T05:10:00;6.05;;;1.77;;
72573;SDS011;60603;52.548;13.420;2024-02-04T05:12:27;8.15;;;1.88;;
72573;SDS011;60603;52.548;13.420;2024-02-04T05:14:54;9.98;;;2.30;;
72573;SDS011;60603;52.548;13.420;2024-02-04T05:17:21;6.72;;;2.25;;
72573;SDS011;60603;52.548;13.420;2024-02-04T05:19:48;8.15;;;2.22;;
72573;SDS011;60603;52.548;13.420;2024-02-04T05:22:15;6.80;;;2.13;;
72573;SDS011;60603;52.548;13.420;2024-02-04T05:24:42;4.78;;;2.00;;
72573;SDS011;60603;52.548;13.420;2024-02-04T05:27:09;9.13;;;2.70;;
72573;SDS011;60603;52.548;13.420;2024-02-04T05:29:36;5.38;;;1.70;;
72573;SDS011;60603;52.548;13.420;2024-02-04T05:32:03;11.30;;;2.92;;
72573;SDS011;60603;52.548;13.420;2024-02-04T05:34:30;7.07;;;1.80;;
72573;SDS011;60603;52.548;13.420;2024-02-04T05:36:58;6.75;;;1.92;;
72573;SDS011;60603;52.548;13.420;2024-02-04T05:39:24;6.70;;;1.83;;
72573;SDS011;60603;52.548;13.420;2024-02-04T05:41:51;6.47;;;1.55;;
72573;SDS011;60603;52.548;13.420;2024-02-04T05:44:18;6.93;;;1.67;;
72573;SDS011;60603;52.548;13.420;2024-02-04T05:46:45;9.52;;;1.95;;
72573;SDS011;60603;52.548;13.420;2024-02-04T05:49:12;8.10;;;1.83;;
72573;SDS011;60603;52.548;13.420;2024-02-04T05:51:40;8.15;;;1.83;;
72573;SDS011;60603;52.548;13.420;2024-02-04T05:54:07;10.40;;;2.42;;
72573;SDS011;60603;52.548;13.420;2024-02-04T05:56:34;8.20;;;1.92;;
72573;SDS011;60603;52.548;13.420;2024-02-04T05:59:01;10.35;;;1.90;;
72573;SDS011;60603;52.548;13.420;2024-02-04T06:01:28;7.00;;;1.67;;
72573;SDS011;60603;52.548;13.420;2024-02-04T06:03:54;6.30;;;1.60;;
72573;SDS011;60603;52.548;13.420;2024-02-04T06:06:22;6.25;;;1.67;;
72573;SDS011;60603;52.548;13.420;2024-02-04T06:08:48;5.43;;;2.20;;
72573;SDS011;60603;52.548;13.420;2024-02-04T06:11:15;7.22;;;2.30;;
72573;SDS011;60603;52.548;13.420;2024-02-04T06:13:43;6.80;;;2.08;;
72573;SDS011;60603;52.548;13.420;2024-02-04T06:16:11;8.60;;;2.13;;
72573;SDS011;60603;52.548;13.420;2024-02-04T06:18:40;6.85;;;1.98;;
72573;SDS011;60603;52.548;13.420;2024-02-04T06:21:08;5.00;;;2.00;;
72573;SDS011;60603;52.548;13.420;2024-02-04T06:23:34;6.00;;;2.55;;
72573;SDS011;60603;52.548;13.420;2024-02-04T06:26:02;8.35;;;2.35;;
72573;SDS011;60603;52.548;13.420;2024-02-04T06:28:29;8.23;;;2.38;;
72573;SDS011;60603;52.548;13.420;2024-02-04T06:30:56;10.40;;;2.17;;
72573;SDS011;60603;52.548;13.420;2024-02-04T06:33:23;7.70;;;2.17;;
72573;SDS011;60603;52.548;13.420;2024-02-04T06:35:52;6.93;;;2.53;;
72573;SDS011;60603;52.548;13.420;2024-02-04T06:38:20;8.50;;;2.45;;
72573;SDS011;60603;52.548;13.420;2024-02-04T06:40:47;5.70;;;2.40;;
72573;SDS011;60603;52.548;13.420;2024-02-04T06:43:14;12.77;;;2.85;;
72573;SDS011;60603;52.548;13.420;2024-02-04T06:45:41;7.53;;;2.58;;
72573;SDS011;60603;52.548;13.420;2024-02-04T06:48:08;9.50;;;3.53;;
72573;SDS011;60603;52.548;13.420;2024-02-04T06:50:36;9.85;;;3.22;;
72573;SDS011;60603;52.548;13.420;2024-02-04T06:53:03;5.93;;;2.60;;
72573;SDS011;60603;52.548;13.420;2024-02-04T06:55:31;5.68;;;2.30;;
72573;SDS011;60603;52.548;13.420;2024-02-04T06:57:57;7.93;;;3.00;;
72573;SDS011;60603;52.548;13.420;2024-02-04T07:00:24;11.63;;;3.42;;
72573;SDS011;60603;52.548;13.420;2024-02-04T07:02:51;7.25;;;2.85;;
72573;SDS011;60603;52.548;13.420;2024-02-04T07:05:18;8.00;;;3.40;;
72573;SDS011;60603;52.548;13.420;2024-02-04T07:07:45;9.30;;;3.25;;
72573;SDS011;60603;52.548;13.420;2024-02-04T07:10:12;10.00;;;2.97;;
72573;SDS011;60603;52.548;13.420;2024-02-04T07:12:39;9.93;;;3.25;;
72573;SDS011;60603;52.548;13.420;2024-02-04T07:15:06;12.88;;;3.70;;
72573;SDS011;60603;52.548;13.420;2024-02-04T07:17:33;10.30;;;3.35;;
72573;SDS011;60603;52.548;13.420;2024-02-04T07:19:59;11.23;;;4.22;;
72573;SDS011;60603;52.548;13.420;2024-02-04T07:22:27;8.38;;;3.33;;
72573;SDS011;60603;52.548;13.420;2024-02-04T07:24:54;8.65;;;3.10;;
72573;SDS011;60603;52.548;13.420;2024-02-04T07:27:20;8.30;;;3.95;;
72573;SDS011;60603;52.548;13.420;2024-02-04T07:29:47;8.73;;;3.55;;
72573;SDS011;60603;52.548;13.420;2024-02-04T07:32:15;8.50;;;3.58;;
72573;SDS011;60603;52.548;13.420;2024-02-04T07:34:41;9.70;;;3.55;;
72573;SDS011;60603;52.548;13.420;2024-02-04T07:37:08;10.82;;;3.60;;
72573;SDS011;60603;52.548;13.420;2024-02-04T07:39:35;11.30;;;4.32;;
72573;SDS011;60603;52.548;13.420;2024-02-04T07:42:02;9.80;;;3.80;;
72573;SDS011;60603;52.548;13.420;2024-02-04T07:44:29;10.75;;;4.10;;
72573;SDS011;60603;52.548;13.420;2024-02-04T07:46:56;11.27;;;4.72;;
72573;SDS011;60603;52.548;13.420;2024-02-04T07:49:23;10.93;;;3.95;;
72573;SDS011;60603;52.548;13.420;2024-02-04T07:51:50;10.30;;;3.80;;
72573;SDS011;60603;52.548;13.420;2024-02-04T07:54:17;10.20;;;3.67;;
72573;SDS011;60603;52.548;13.420;2024-02-04T07:56:44;11.75;;;3.70;;
72573;SDS011;60603;52.548;13.420;2024-02-04T07:59:11;7.85;;;3.53;;
72573;SDS011;60603;52.548;13.420;2024-02-04T08:01:38;8.55;;;3.20;;
72573;SDS011;60603;52.548;13.420;2024-02-04T08:04:05;11.68;;;4.05;;
72573;SDS011;60603;52.548;13.420;2024-02-04T08:06:35;8.55;;;3.40;;
72573;SDS011;60603;52.548;13.420;2024-02-04T08:09:04;9.38;;;3.95;;
72573;SDS011;60603;52.548;13.420;2024-02-04T08:11:30;11.63;;;3.97;;
72573;SDS011;60603;52.548;13.420;2024-02-04T08:13:57;8.73;;;3.72;;
72573;SDS011;60603;52.548;13.420;2024-02-04T08:16:24;11.38;;;3.60;;
72573;SDS011;60603;52.548;13.420;2024-02-04T08:18:51;11.50;;;3.83;;
72573;SDS011;60603;52.548;13.420;2024-02-04T08:21:18;8.63;;;3.17;;
72573;SDS011;60603;52.548;13.420;2024-02-04T08:23:45;11.35;;;3.47;;
72573;SDS011;60603;52.548;13.420;2024-02-04T08:26:12;6.30;;;3.17;;
72573;SDS011;60603;52.548;13.420;2024-02-04T08:28:39;8.25;;;2.97;;
72573;SDS011;60603;52.548;13.420;2024-02-04T08:31:06;16.80;;;3.33;;
72573;SDS011;60603;52.548;13.420;2024-02-04T08:33:33;10.82;;;3.63;;
72573;SDS011;60603;52.548;13.420;2024-02-04T08:36:00;10.23;;;3.70;;
72573;SDS011;60603;52.548;13.420;2024-02-04T08:38:27;9.43;;;3.50;;
72573;SDS011;60603;52.548;13.420;2024-02-04T08:40:53;8.95;;;2.95;;
72573;SDS011;60603;52.548;13.420;2024-02-04T08:43:20;8.07;;;2.92;;
72573;SDS011;60603;52.548;13.420;2024-02-04T08:45:47;13.15;;;3.45;;
72573;SDS011;60603;52.548;13.420;2024-02-04T08:48:14;9.52;;;3.85;;
72573;SDS011;60603;52.548;13.420;2024-02-04T08:50:41;13.75;;;3.40;;
72573;SDS011;60603;52.548;13.420;2024-02-04T08:53:08;8.68;;;2.50;;
72573;SDS011;60603;52.548;13.420;2024-02-04T08:55:34;11.55;;;3.50;;
72573;SDS011;60603;52.548;13.420;2024-02-04T08:58:01;10.35;;;3.05;;
72573;SDS011;60603;52.548;13.420;2024-02-04T09:00:28;10.15;;;3.85;;
72573;SDS011;60603;52.548;13.420;2024-02-04T09:02:55;9.95;;;2.45;;
72573;SDS011;60603;52.548;13.420;2024-02-04T09:05:22;15.10;;;2.85;;
72573;SDS011;60603;52.548;13.420;2024-02-04T09:07:49;12.10;;;3.50;;
72573;SDS011;60603;52.548;13.420;2024-02-04T09:10:16;9.73;;;2.83;;
72573;SDS011;60603;52.548;13.420;2024-02-04T09:12:43;9.70;;;2.40;;
72573;SDS011;60603;52.548;13.420;2024-02-04T09:15:10;11.70;;;3.03;;
72573;SDS011;60603;52.548;13.420;2024-02-04T09:17:37;8.23;;;2.30;;
72573;SDS011;60603;52.548;13.420;2024-02-04T09:20:04;11.68;;;2.55;;
72573;SDS011;60603;52.548;13.420;2024-02-04T09:22:32;9.10;;;2.22;;
72573;SDS011;60603;52.548;13.420;2024-02-04T09:24:59;12.18;;;3.00;;
72573;SDS011;60603;52.548;13.420;2024-02-04T09:27:26;9.15;;;2.47;;
72573;SDS011;60603;52.548;13.420;2024-02-04T09:29:53;9.70;;;2.03;;
72573;SDS011;60603;52.548;13.420;2024-02-04T09:32:22;6.68;;;2.47;;
72573;SDS011;60603;52.548;13.420;2024-02-04T09:34:49;5.57;;;1.80;;
72573;SDS011;60603;52.548;13.420;2024-02-04T09:37:16;9.85;;;2.35;;
72573;SDS011;60603;52.548;13.420;2024-02-04T09:39:43;8.13;;;1.92;;
72573;SDS011;60603;52.548;13.420;2024-02-04T09:42:11;5.47;;;2.03;;
72573;SDS011;60603;52.548;13.420;2024-02-04T09:44:46;4.38;;;1.65;;
72573;SDS011;60603;52.548;13.420;2024-02-04T09:47:13;8.82;;;1.90;;
72573;SDS011;60603;52.548;13.420;2024-02-04T09:49:40;10.68;;;1.90;;
72573;SDS011;60603;52.548;13.420;2024-02-04T09:52:08;12.73;;;2.03;;
72573;SDS011;60603;52.548;13.420;2024-02-04T09:54:38;7.10;;;2.05;;
72573;SDS011;60603;52.548;13.420;2024-02-04T09:57:15;8.45;;;1.95;;
72573;SDS011;60603;52.548;13.420;2024-02-04T09:59:45;6.40;;;1.75;;
72573;SDS011;60603;52.548;13.420;2024-02-04T10:02:13;8.07;;;1.65;;
72573;SDS011;60603;52.548;13.420;2024-02-04T10:04:46;10.93;;;1.67;;
72573;SDS011;60603;52.548;13.420;2024-02-04T10:07:14;5.10;;;1.33;;
72573;SDS011;60603;52.548;13.420;2024-02-04T10:09:43;6.45;;;1.83;;
72573;SDS011;60603;52.548;13.420;2024-02-04T10:12:10;7.15;;;1.90;;
72573;SDS011;60603;52.548;13.420;2024-02-04T10:14:38;8.23;;;2.08;;
72573;SDS011;60603;52.548;13.420;2024-02-04T10:17:05;8.27;;;1.73;;
72573;SDS011;60603;52.548;13.420;2024-02-04T10:19:31;7.30;;;1.40;;
72573;SDS011;60603;52.548;13.420;2024-02-04T10:21:59;10.15;;;1.70;;
72573;SDS011;60603;52.548;13.420;2024-02-04T10:24:27;6.78;;;1.63;;
72573;SDS011;60603;52.548;13.420;2024-02-04T10:26:54;7.07;;;1.52;;
72573;SDS011;60603;52.548;13.420;2024-02-04T10:29:28;4.45;;;1.60;;
72573;SDS011;60603;52.548;13.420;2024-02-04T10:31:55;7.40;;;1.52;;
72573;SDS011;60603;52.548;13.420;2024-02-04T10:34:25;4.93;;;1.20;;
72573;SDS011;60603;52.548;13.420;2024-02-04T10:36:53;6.68;;;1.60;;
72573;SDS011;60603;52.548;13.420;2024-02-04T10:39:20;4.03;;;1.00;;
72573;SDS011;60603;52.548;13.420;2024-02-04T10:41:50;6.57;;;1.52;;
72573;SDS011;60603;52.548;13.420;2024-02-04T10:44:20;6.63;;;1.35;;
72573;SDS011;60603;52.548;13.420;2024-02-04T10:46:49;3.75;;;1.40;;
72573;SDS011;60603;52.548;13.420;2024-02-04T10:49:17;3.72;;;1.20;;
72573;SDS011;60603;52.548;13.420;2024-02-04T10:51:45;5.68;;;1.73;;
72573;SDS011;60603;52.548;13.420;2024-02-04T10:54:16;3.03;;;0.80;;
72573;SDS011;60603;52.548;13.420;2024-02-04T10:56:45;9.38;;;1.30;;
72573;SDS011;60603;52.548;13.420;2024-02-04T10:59:14;4.25;;;1.50;;
72573;SDS011;60603;52.548;13.420;2024-02-04T11:01:45;7.80;;;1.40;;
72573;SDS011;60603;52.548;13.420;2024-02-04T11:04:15;8.07;;;1.40;;
72573;SDS011;60603;52.548;13.420;2024-02-04T11:06:44;3.55;;;1.88;;
72573;SDS011;60603;52.548;13.420;2024-02-04T11:09:11;10.88;;;5.32;;
72573;SDS011;60603;52.548;13.420;2024-02-04T11:11:38;5.05;;;1.50;;
72573;SDS011;60603;52.548;13.420;2024-02-04T11:14:08;5.18;;;1.20;;
72573;SDS011;60603;52.548;13.420;2024-02-04T11:27:42;5.28;;;1.30;;
72573;SDS011;60603;52.548;13.420;2024-02-04T11:30:09;6.13;;;1.42;;
72573;SDS011;60603;52.548;13.420;2024-02-04T11:32:36;5.35;;;1.75;;
72573;SDS011;60603;52.548;13.420;2024-02-04T11:35:03;7.70;;;1.52;;
72573;SDS011;60603;52.548;13.420;2024-02-04T11:37:34;6.15;;;1.73;;
72573;SDS011;60603;52.548;13.420;2024-02-04T11:40:03;7.00;;;1.33;;
72573;SDS011;60603;52.548;13.420;2024-02-04T11:42:31;7.20;;;1.30;;
72573;SDS011;60603;52.548;13.420;2024-02-04T11:45:08;3.97;;;1.05;;
72573;SDS011;60603;52.548;13.420;2024-02-04T11:47:36;6.07;;;1.35;;
72573;SDS011;60603;52.548;13.420;2024-02-04T11:50:04;5.70;;;1.13;;
72573;SDS011;60603;52.548;13.420;2024-02-04T11:52:31;3.80;;;1.30;;
72573;SDS011;60603;52.548;13.420;2024-02-04T11:54:58;4.45;;;1.42;;
72573;SDS011;60603;52.548;13.420;2024-02-04T11:57:26;6.55;;;2.08;;
72573;SDS011;60603;52.548;13.420;2024-02-04T11:59:53;7.03;;;1.73;;
72573;SDS011;60603;52.548;13.420;2024-02-04T12:02:21;10.02;;;1.90;;
72573;SDS011;60603;52.548;13.420;2024-02-04T12:04:48;8.80;;;2.10;;
72573;SDS011;60603;52.548;13.420;2024-02-04T12:07:16;5.30;;;1.20;;
72573;SDS011;60603;52.548;13.420;2024-02-04T12:09:43;10.40;;;1.88;;
72573;SDS011;60603;52.548;13.420;2024-02-04T12:12:10;5.28;;;1.33;;
72573;SDS011;60603;52.548;13.420;2024-02-04T12:14:38;5.60;;;1.58;;
72573;SDS011;60603;52.548;13.420;2024-02-04T12:17:09;7.88;;;1.55;;
72573;SDS011;60603;52.548;13.420;2024-02-04T12:19:39;4.18;;;1.15;;
72573;SDS011;60603;52.548;13.420;2024-02-04T12:22:10;5.68;;;1.08;;
72573;SDS011;60603;52.548;13.420;2024-02-04T12:24:38;8.35;;;1.58;;
72573;SDS011;60603;52.548;13.420;2024-02-04T12:27:05;5.35;;;1.45;;
72573;SDS011;60603;52.548;13.420;2024-02-04T12:29:33;4.82;;;1.45;;
72573;SDS011;60603;52.548;13.420;2024-02-04T12:32:00;5.18;;;1.50;;
72573;SDS011;60603;52.548;13.420;2024-02-04T12:34:29;6.18;;;1.67;;
72573;SDS011;60603;52.548;13.420;2024-02-04T12:37:00;8.38;;;1.63;;
72573;SDS011;60603;52.548;13.420;2024-02-04T12:39:27;6.28;;;1.40;;
72573;SDS011;60603;52.548;13.420;2024-02-04T12:41:55;6.78;;;1.52;;
72573;SDS011;60603;52.548;13.420;2024-02-04T12:44:22;6.93;;;1.52;;
72573;SDS011;60603;52.548;13.420;2024-02-04T12:46:52;8.73;;;1.58;;
72573;SDS011;60603;52.548;13.420;2024-02-04T12:49:19;7.15;;;1.67;;
72573;SDS011;60603;52.548;13.420;2024-02-04T12:51:50;5.18;;;1.75;;
72573;SDS011;60603;52.548;13.420;2024-02-04T12:54:22;9.73;;;1.88;;
72573;SDS011;60603;52.548;13.420;2024-02-04T12:56:53;6.60;;;1.60;;
72573;SDS011;60603;52.548;13.420;2024-02-04T12:59:30;3.00;;;1.10;;
72573;SDS011;60603;52.548;13.420;2024-02-04T13:01:58;6.03;;;1.50;;
72573;SDS011;60603;52.548;13.420;2024-02-04T13:04:33;6.32;;;1.48;;
72573;SDS011;60603;52.548;13.420;2024-02-04T13:07:06;6.22;;;1.52;;
72573;SDS011;60603;52.548;13.420;2024-02-04T13:09:33;6.90;;;1.60;;
72573;SDS011;60603;52.548;13.420;2024-02-04T13:12:04;7.10;;;1.13;;
72573;SDS011;60603;52.548;13.420;2024-02-04T13:14:31;7.93;;;1.40;;
72573;SDS011;60603;52.548;13.420;2024-02-04T13:16:58;3.70;;;1.17;;
72573;SDS011;60603;52.548;13.420;2024-02-04T13:19:31;7.55;;;1.40;;
72573;SDS011;60603;52.548;13.420;2024-02-04T13:22:00;8.18;;;1.40;;
72573;SDS011;60603;52.548;13.420;2024-02-04T13:24:27;6.30;;;1.50;;
72573;SDS011;60603;52.548;13.420;2024-02-04T13:26:54;5.15;;;1.45;;
72573;SDS011;60603;52.548;13.420;2024-02-04T13:29:21;10.02;;;2.45;;
72573;SDS011;60603;52.548;13.420;2024-02-04T13:31:48;6.60;;;1.65;;
72573;SDS011;60603;52.548;13.420;2024-02-04T13:34:15;6.32;;;1.40;;
72573;SDS011;60603;52.548;13.420;2024-02-04T13:36:47;7.95;;;1.73;;
72573;SDS011;60603;52.548;13.420;2024-02-04T13:39:13;5.88;;;1.38;;
72573;SDS011;60603;52.548;13.420;2024-02-04T13:41:40;8.00;;;1.95;;
72573;SDS011;60603;52.548;13.420;2024-02-04T13:44:07;6.00;;;1.60;;
72573;SDS011;60603;52.548;13.420;2024-02-04T13:46:35;3.03;;;0.95;;
72573;SDS011;60603;52.548;13.420;2024-02-04T13:49:02;5.57;;;1.30;;
72573;SDS011;60603;52.548;13.420;2024-02-04T13:51:29;5.28;;;1.23;;
72573;SDS011;60603;52.548;13.420;2024-02-04T13:54:09;6.63;;;1.35;;
72573;SDS011;60603;52.548;13.420;2024-02-04T13:56:37;4.80;;;1.42;;
72573;SDS011;60603;52.548;13.420;2024-02-04T13:59:04;5.20;;;1.90;;
72573;SDS011;60603;52.548;13.420;2024-02-04T14:01:32;6.18;;;1.77;;
72573;SDS011;60603;52.548;13.420;2024-02-04T14:04:00;7.93;;;1.55;;
72573;SDS011;60603;52.548;13.420;2024-02-04T14:06:27;6.35;;;1.42;;
72573;SDS011;60603;52.548;13.420;2024-02-04T14:08:54;9.93;;;1.67;;
72573;SDS011;60603;52.548;13.420;2024-02-04T14:11:21;10.20;;;1.67;;
72573;SDS011;60603;52.548;13.420;2024-02-04T14:13:48;7.60;;;1.58;;
72573;SDS011;60603;52.548;13.420;2024-02-04T14:16:15;8.18;;;1.42;;
72573;SDS011;60603;52.548;13.420;2024-02-04T14:18:42;8.40;;;2.00;;
72573;SDS011;60603;52.548;13.420;2024-02-04T14:21:12;5.45;;;1.42;;
72573;SDS011;60603;52.548;13.420;2024-02-04T14:23:42;6.85;;;1.60;;
72573;SDS011;60603;52.548;13.420;2024-02-04T14:26:18;5.40;;;1.20;;
72573;SDS011;60603;52.548;13.420;2024-02-04T14:28:46;7.13;;;1.70;;
72573;SDS011;60603;52.548;13.420;2024-02-04T14:31:13;9.27;;;1.88;;
72573;SDS011;60603;52.548;13.420;2024-02-04T14:33:40;9.73;;;1.75;;
72573;SDS011;60603;52.548;13.420;2024-02-04T14:36:08;7.90;;;2.25;;
72573;SDS011;60603;52.548;13.420;2024-02-04T14:38:35;6.68;;;2.42;;
72573;SDS011;60603;52.548;13.420;2024-02-04T14:41:05;6.75;;;1.77;;
72573;SDS011;60603;52.548;13.420;2024-02-04T14:43:32;4.20;;;1.52;;
72573;SDS011;60603;52.548;13.420;2024-02-04T14:45:59;6.30;;;1.83;;
72573;SDS011;60603;52.548;13.420;2024-02-04T14:48:26;12.70;;;2.13;;
72573;SDS011;60603;52.548;13.420;2024-02-04T14:50:53;4.70;;;1.25;;